sensor_id;sensor_type;location;lat;lon;timestamp;P1;durP1;ratioP1;P2;durP2;ratioP2
6757;SDS011;3416;53.074;8.822;2022-10-31T00:02:02;48.38;;;34.80;;
6757;SDS011;3416;53.074;8.822;2022-10-31T00:04:29;42.42;;;30.63;;
6757;SDS011;3416;53.074;8.822;2022-10-31T00:06:56;51.45;;;35.47;;
6757;SDS011;3416;53.074;8.822;2022-10-31T00:09:23;43.17;;;33.72;;
6757;SDS011;3416;53.074;8.822;2022-10-31T00:11:50;54.53;;;34.35;;
6757;SDS011;3416;53.074;8.822;2022-10-31T00:14:16;58.83;;;35.78;;
6757;SDS011;3416;53.074;8.822;2022-10-31T00:16:45;49.90;;;35.65;;
6757;SDS011;3416;53.074;8.822;2022-10-31T00:19:11;56.17;;;37.28;;
6757;SDS011;3416;53.074;8.822;2022-10-31T00:21:38;47.13;;;33.90;;
6757;SDS011;3416;53.074;8.822;2022-10-31T00:24:05;55.00;;;39.22;;
6757;SDS011;3416;53.074;8.822;2022-10-31T00:26:32;44.88;;;34.58;;
6757;SDS011;3416;53.074;8.822;2022-10-31T00:28:59;49.08;;;36.50;;
6757;SDS011;3416;53.074;8.822;2022-10-31T00:31:26;61.78;;;38.38;;
6757;SDS011;3416;53.074;8.822;2022-10-31T00:33:55;64.85;;;39.38;;
6757;SDS011;3416;53.074;8.822;2022-10-31T00:36:23;54.05;;;37.05;;
6757;SDS011;3416;53.074;8.822;2022-10-31T00:38:50;52.20;;;38.88;;
6757;SDS011;3416;53.074;8.822;2022-10-31T00:41:17;58.60;;;39.60;;
6757;SDS011;3416;53.074;8.822;2022-10-31T00:43:46;62.85;;;42.35;;
6757;SDS011;3416;53.074;8.822;2022-10-31T00:46:13;67.78;;;38.85;;
6757;SDS011;3416;53.074;8.822;2022-10-31T00:48:40;62.00;;;41.50;;
6757;SDS011;3416;53.074;8.822;2022-10-31T00:51:08;65.35;;;42.55;;
6757;SDS011;3416;53.074;8.822;2022-10-31T00:53:35;57.33;;;41.58;;
6757;SDS011;3416;53.074;8.822;2022-10-31T00:56:02;61.00;;;42.00;;
6757;SDS011;3416;53.074;8.822;2022-10-31T00:58:30;59.10;;;41.28;;
6757;SDS011;3416;53.074;8.822;2022-10-31T01:00:56;69.30;;;45.53;;
6757;SDS011;3416;53.074;8.822;2022-10-31T01:03:24;66.47;;;43.63;;
6757;SDS011;3416;53.074;8.822;2022-10-31T01:05:55;54.88;;;39.58;;
6757;SDS011;3416;53.074;8.822;2022-10-31T01:08:24;62.00;;;42.38;;
6757;SDS011;3416;53.074;8.822;2022-10-31T01:10:59;67.40;;;43.90;;
6757;SDS011;3416;53.074;8.822;2022-10-31T01:13:27;66.40;;;43.78;;
6757;SDS011;3416;53.074;8.822;2022-10-31T01:15:54;62.08;;;42.20;;
6757;SDS011;3416;53.074;8.822;2022-10-31T01:18:21;66.60;;;43.45;;
6757;SDS011;3416;53.074;8.822;2022-10-31T01:20:56;74.38;;;48.95;;
6757;SDS011;3416;53.074;8.822;2022-10-31T01:23:25;72.38;;;46.60;;
6757;SDS011;3416;53.074;8.822;2022-10-31T01:25:59;71.68;;;44.38;;
6757;SDS011;3416;53.074;8.822;2022-10-31T01:28:28;77.53;;;47.13;;
6757;SDS011;3416;53.074;8.822;2022-10-31T01:30:54;76.75;;;47.88;;
6757;SDS011;3416;53.074;8.822;2022-10-31T01:33:21;70.50;;;47.55;;
6757;SDS011;3416;53.074;8.822;2022-10-31T01:35:48;59.40;;;44.47;;
6757;SDS011;3416;53.074;8.822;2022-10-31T01:38:15;70.28;;;44.67;;
6757;SDS011;3416;53.074;8.822;2022-10-31T01:40:43;72.30;;;49.90;;
6757;SDS011;3416;53.074;8.822;2022-10-31T01:43:11;71.97;;;48.55;;
6757;SDS011;3416;53.074;8.822;2022-10-31T01:45:39;79.60;;;47.58;;
6757;SDS011;3416;53.074;8.822;2022-10-31T01:48:09;85.65;;;51.13;;
6757;SDS011;3416;53.074;8.822;2022-10-31T01:50:39;81.75;;;49.28;;
6757;SDS011;3416;53.074;8.822;2022-10-31T01:53:08;62.88;;;45.45;;
6757;SDS011;3416;53.074;8.822;2022-10-31T01:55:38;73.90;;;47.03;;
6757;SDS011;3416;53.074;8.822;2022-10-31T01:58:08;75.97;;;47.47;;
6757;SDS011;3416;53.074;8.822;2022-10-31T02:00:38;76.68;;;47.58;;
6757;SDS011;3416;53.074;8.822;2022-10-31T02:03:07;78.85;;;47.85;;
6757;SDS011;3416;53.074;8.822;2022-10-31T02:05:34;80.22;;;48.95;;
6757;SDS011;3416;53.074;8.822;2022-10-31T02:08:02;67.55;;;45.97;;
6757;SDS011;3416;53.074;8.822;2022-10-31T02:10:33;80.85;;;48.33;;
6757;SDS011;3416;53.074;8.822;2022-10-31T02:13:02;78.75;;;47.22;;
6757;SDS011;3416;53.074;8.822;2022-10-31T02:15:33;79.85;;;48.13;;
6757;SDS011;3416;53.074;8.822;2022-10-31T02:18:02;83.60;;;48.97;;
6757;SDS011;3416;53.074;8.822;2022-10-31T02:20:32;79.07;;;48.67;;
6757;SDS011;3416;53.074;8.822;2022-10-31T02:23:13;83.55;;;49.78;;
6757;SDS011;3416;53.074;8.822;2022-10-31T02:25:59;83.03;;;50.83;;
6757;SDS011;3416;53.074;8.822;2022-10-31T02:28:53;78.45;;;49.30;;
6757;SDS011;3416;53.074;8.822;2022-10-31T02:31:50;78.65;;;51.63;;
6757;SDS011;3416;53.074;8.822;2022-10-31T02:34:28;84.85;;;48.35;;
6757;SDS011;3416;53.074;8.822;2022-10-31T02:37:06;98.63;;;57.95;;
6757;SDS011;3416;53.074;8.822;2022-10-31T02:39:40;86.03;;;50.97;;
6757;SDS011;3416;53.074;8.822;2022-10-31T02:42:13;87.85;;;50.90;;
6757;SDS011;3416;53.074;8.822;2022-10-31T02:44:44;95.88;;;53.47;;
6757;SDS011;3416;53.074;8.822;2022-10-31T02:47:20;71.93;;;50.22;;
6757;SDS011;3416;53.074;8.822;2022-10-31T02:49:53;83.55;;;52.28;;
6757;SDS011;3416;53.074;8.822;2022-10-31T02:52:24;78.75;;;51.67;;
6757;SDS011;3416;53.074;8.822;2022-10-31T02:54:54;88.70;;;52.17;;
6757;SDS011;3416;53.074;8.822;2022-10-31T02:57:22;77.88;;;49.45;;
6757;SDS011;3416;53.074;8.822;2022-10-31T02:59:52;77.50;;;48.33;;
6757;SDS011;3416;53.074;8.822;2022-10-31T03:02:28;73.47;;;49.47;;
6757;SDS011;3416;53.074;8.822;2022-10-31T03:05:19;83.30;;;52.70;;
6757;SDS011;3416;53.074;8.822;2022-10-31T03:08:01;88.53;;;54.58;;
6757;SDS011;3416;53.074;8.822;2022-10-31T03:10:35;65.90;;;45.15;;
6757;SDS011;3416;53.074;8.822;2022-10-31T03:13:08;79.45;;;50.35;;
6757;SDS011;3416;53.074;8.822;2022-10-31T03:15:37;67.97;;;45.63;;
6757;SDS011;3416;53.074;8.822;2022-10-31T03:18:10;73.43;;;46.42;;
6757;SDS011;3416;53.074;8.822;2022-10-31T03:20:42;95.70;;;48.95;;
6757;SDS011;3416;53.074;8.822;2022-10-31T03:23:14;84.18;;;51.80;;
6757;SDS011;3416;53.074;8.822;2022-10-31T03:25:42;88.88;;;48.60;;
6757;SDS011;3416;53.074;8.822;2022-10-31T03:28:11;72.70;;;43.90;;
6757;SDS011;3416;53.074;8.822;2022-10-31T03:30:41;58.45;;;42.42;;
6757;SDS011;3416;53.074;8.822;2022-10-31T03:33:14;98.40;;;53.58;;
6757;SDS011;3416;53.074;8.822;2022-10-31T03:35:45;84.88;;;52.13;;
6757;SDS011;3416;53.074;8.822;2022-10-31T03:38:15;93.07;;;53.92;;
6757;SDS011;3416;53.074;8.822;2022-10-31T03:40:43;68.88;;;48.47;;
6757;SDS011;3416;53.074;8.822;2022-10-31T03:43:13;84.00;;;50.22;;
6757;SDS011;3416;53.074;8.822;2022-10-31T03:45:45;62.00;;;39.85;;
6757;SDS011;3416;53.074;8.822;2022-10-31T03:48:14;104.90;;;54.38;;
6757;SDS011;3416;53.074;8.822;2022-10-31T03:50:45;67.90;;;43.58;;
6757;SDS011;3416;53.074;8.822;2022-10-31T03:53:19;87.85;;;53.28;;
6757;SDS011;3416;53.074;8.822;2022-10-31T03:55:52;112.15;;;54.30;;
6757;SDS011;3416;53.074;8.822;2022-10-31T03:58:24;74.20;;;49.35;;
6757;SDS011;3416;53.074;8.822;2022-10-31T04:00:54;108.43;;;53.75;;
6757;SDS011;3416;53.074;8.822;2022-10-31T04:03:25;88.75;;;51.20;;
6757;SDS011;3416;53.074;8.822;2022-10-31T04:05:55;104.07;;;55.63;;
6757;SDS011;3416;53.074;8.822;2022-10-31T04:08:26;109.55;;;54.13;;
6757;SDS011;3416;53.074;8.822;2022-10-31T04:10:56;99.38;;;54.22;;
6757;SDS011;3416;53.074;8.822;2022-10-31T04:13:26;92.13;;;50.75;;
6757;SDS011;3416;53.074;8.822;2022-10-31T04:15:55;90.55;;;52.00;;
6757;SDS011;3416;53.074;8.822;2022-10-31T04:18:23;124.28;;;60.90;;
6757;SDS011;3416;53.074;8.822;2022-10-31T04:20:58;107.40;;;58.30;;
6757;SDS011;3416;53.074;8.822;2022-10-31T04:23:27;100.35;;;55.47;;
6757;SDS011;3416;53.074;8.822;2022-10-31T04:25:54;107.38;;;58.80;;
6757;SDS011;3416;53.074;8.822;2022-10-31T04:28:21;142.82;;;67.95;;
6757;SDS011;3416;53.074;8.822;2022-10-31T04:30:48;131.90;;;62.40;;
6757;SDS011;3416;53.074;8.822;2022-10-31T04:33:15;108.95;;;56.97;;
6757;SDS011;3416;53.074;8.822;2022-10-31T04:35:44;155.60;;;67.03;;
6757;SDS011;3416;53.074;8.822;2022-10-31T04:38:11;269.02;;;81.18;;
6757;SDS011;3416;53.074;8.822;2022-10-31T04:40:37;134.93;;;62.53;;
6757;SDS011;3416;53.074;8.822;2022-10-31T04:43:04;188.23;;;77.95;;
6757;SDS011;3416;53.074;8.822;2022-10-31T04:45:31;276.48;;;86.03;;
6757;SDS011;3416;53.074;8.822;2022-10-31T04:47:58;163.52;;;69.90;;
6757;SDS011;3416;53.074;8.822;2022-10-31T04:50:25;93.47;;;55.10;;
6757;SDS011;3416;53.074;8.822;2022-10-31T04:52:53;146.73;;;66.88;;
6757;SDS011;3416;53.074;8.822;2022-10-31T04:55:20;392.45;;;103.50;;
6757;SDS011;3416;53.074;8.822;2022-10-31T04:57:47;168.02;;;78.40;;
6757;SDS011;3416;53.074;8.822;2022-10-31T05:00:16;628.05;;;134.35;;
6757;SDS011;3416;53.074;8.822;2022-10-31T05:02:44;249.00;;;92.72;;
6757;SDS011;3416;53.074;8.822;2022-10-31T05:05:12;313.88;;;109.15;;
6757;SDS011;3416;53.074;8.822;2022-10-31T05:07:40;618.40;;;137.75;;
6757;SDS011;3416;53.074;8.822;2022-10-31T05:10:09;480.55;;;122.80;;
6757;SDS011;3416;53.074;8.822;2022-10-31T05:12:37;771.70;;;164.30;;
6757;SDS011;3416;53.074;8.822;2022-10-31T05:15:11;640.03;;;140.60;;
6757;SDS011;3416;53.074;8.822;2022-10-31T05:17:38;333.63;;;99.30;;
6757;SDS011;3416;53.074;8.822;2022-10-31T05:20:05;983.47;;;191.18;;
6757;SDS011;3416;53.074;8.822;2022-10-31T05:22:32;76.05;;;54.38;;
6757;SDS011;3416;53.074;8.822;2022-10-31T05:24:59;225.77;;;77.07;;
6757;SDS011;3416;53.074;8.822;2022-10-31T05:27:34;339.60;;;97.65;;
6757;SDS011;3416;53.074;8.822;2022-10-31T05:30:05;331.02;;;102.28;;
6757;SDS011;3416;53.074;8.822;2022-10-31T05:32:36;462.20;;;117.18;;
6757;SDS011;3416;53.074;8.822;2022-10-31T05:35:03;306.90;;;98.13;;
6757;SDS011;3416;53.074;8.822;2022-10-31T05:37:33;300.85;;;90.32;;
6757;SDS011;3416;53.074;8.822;2022-10-31T05:40:00;235.35;;;89.82;;
6757;SDS011;3416;53.074;8.822;2022-10-31T05:42:29;220.65;;;89.40;;
6757;SDS011;3416;53.074;8.822;2022-10-31T05:44:57;164.30;;;80.15;;
6757;SDS011;3416;53.074;8.822;2022-10-31T05:47:26;134.43;;;69.65;;
6757;SDS011;3416;53.074;8.822;2022-10-31T05:49:53;109.93;;;62.63;;
6757;SDS011;3416;53.074;8.822;2022-10-31T05:52:20;292.48;;;96.85;;
6757;SDS011;3416;53.074;8.822;2022-10-31T05:54:47;212.98;;;85.10;;
6757;SDS011;3416;53.074;8.822;2022-10-31T05:57:14;304.88;;;100.65;;
6757;SDS011;3416;53.074;8.822;2022-10-31T05:59:41;98.13;;;56.67;;
6757;SDS011;3416;53.074;8.822;2022-10-31T06:02:09;246.27;;;86.13;;
6757;SDS011;3416;53.074;8.822;2022-10-31T06:04:36;105.57;;;57.20;;
6757;SDS011;3416;53.074;8.822;2022-10-31T06:07:03;125.22;;;64.10;;
6757;SDS011;3416;53.074;8.822;2022-10-31T06:09:30;96.68;;;58.30;;
6757;SDS011;3416;53.074;8.822;2022-10-31T06:11:57;190.18;;;76.68;;
6757;SDS011;3416;53.074;8.822;2022-10-31T06:14:25;233.27;;;83.88;;
6757;SDS011;3416;53.074;8.822;2022-10-31T06:16:52;163.52;;;72.43;;
6757;SDS011;3416;53.074;8.822;2022-10-31T06:19:22;153.10;;;70.05;;
6757;SDS011;3416;53.074;8.822;2022-10-31T06:21:48;98.03;;;55.03;;
6757;SDS011;3416;53.074;8.822;2022-10-31T06:24:15;110.03;;;63.40;;
6757;SDS011;3416;53.074;8.822;2022-10-31T06:26:42;119.45;;;66.47;;
6757;SDS011;3416;53.074;8.822;2022-10-31T06:29:09;87.78;;;57.83;;
6757;SDS011;3416;53.074;8.822;2022-10-31T06:31:36;95.85;;;60.55;;
6757;SDS011;3416;53.074;8.822;2022-10-31T06:34:03;132.77;;;69.03;;
6757;SDS011;3416;53.074;8.822;2022-10-31T06:36:31;102.45;;;61.65;;
6757;SDS011;3416;53.074;8.822;2022-10-31T06:38:59;88.88;;;56.00;;
6757;SDS011;3416;53.074;8.822;2022-10-31T06:41:26;105.60;;;62.25;;
6757;SDS011;3416;53.074;8.822;2022-10-31T06:43:53;196.32;;;75.20;;
6757;SDS011;3416;53.074;8.822;2022-10-31T06:46:21;80.40;;;56.58;;
6757;SDS011;3416;53.074;8.822;2022-10-31T06:48:48;90.40;;;59.88;;
6757;SDS011;3416;53.074;8.822;2022-10-31T06:51:14;299.85;;;97.78;;
6757;SDS011;3416;53.074;8.822;2022-10-31T06:53:43;131.13;;;68.15;;
6757;SDS011;3416;53.074;8.822;2022-10-31T06:56:10;95.65;;;60.13;;
6757;SDS011;3416;53.074;8.822;2022-10-31T06:58:38;190.20;;;76.55;;
6757;SDS011;3416;53.074;8.822;2022-10-31T07:01:05;152.90;;;72.38;;
6757;SDS011;3416;53.074;8.822;2022-10-31T07:03:33;97.63;;;59.10;;
6757;SDS011;3416;53.074;8.822;2022-10-31T07:06:00;85.75;;;56.45;;
6757;SDS011;3416;53.074;8.822;2022-10-31T07:08:27;112.88;;;64.18;;
6757;SDS011;3416;53.074;8.822;2022-10-31T07:10:57;79.25;;;57.85;;
6757;SDS011;3416;53.074;8.822;2022-10-31T07:13:24;75.18;;;52.60;;
6757;SDS011;3416;53.074;8.822;2022-10-31T07:15:51;94.35;;;56.67;;
6757;SDS011;3416;53.074;8.822;2022-10-31T07:18:19;129.10;;;65.18;;
6757;SDS011;3416;53.074;8.822;2022-10-31T07:20:47;163.05;;;73.63;;
6757;SDS011;3416;53.074;8.822;2022-10-31T07:23:14;234.40;;;80.88;;
6757;SDS011;3416;53.074;8.822;2022-10-31T07:25:41;126.85;;;67.43;;
6757;SDS011;3416;53.074;8.822;2022-10-31T07:28:09;168.30;;;68.35;;
6757;SDS011;3416;53.074;8.822;2022-10-31T07:30:37;108.85;;;61.05;;
6757;SDS011;3416;53.074;8.822;2022-10-31T07:33:04;101.28;;;56.75;;
6757;SDS011;3416;53.074;8.822;2022-10-31T07:35:31;88.95;;;56.15;;
6757;SDS011;3416;53.074;8.822;2022-10-31T07:38:06;122.28;;;66.38;;
6757;SDS011;3416;53.074;8.822;2022-10-31T07:40:34;116.03;;;64.53;;
6757;SDS011;3416;53.074;8.822;2022-10-31T07:43:00;74.75;;;50.10;;
6757;SDS011;3416;53.074;8.822;2022-10-31T07:45:29;83.80;;;51.70;;
6757;SDS011;3416;53.074;8.822;2022-10-31T07:47:56;99.20;;;55.40;;
6757;SDS011;3416;53.074;8.822;2022-10-31T07:50:23;58.58;;;46.97;;
6757;SDS011;3416;53.074;8.822;2022-10-31T07:52:58;83.45;;;50.90;;
6757;SDS011;3416;53.074;8.822;2022-10-31T07:55:25;63.55;;;44.50;;
6757;SDS011;3416;53.074;8.822;2022-10-31T07:57:56;64.95;;;45.60;;
6757;SDS011;3416;53.074;8.822;2022-10-31T08:00:24;53.50;;;42.20;;
6757;SDS011;3416;53.074;8.822;2022-10-31T08:02:59;70.78;;;48.97;;
6757;SDS011;3416;53.074;8.822;2022-10-31T08:05:26;87.57;;;53.28;;
6757;SDS011;3416;53.074;8.822;2022-10-31T08:07:54;101.65;;;56.80;;
6757;SDS011;3416;53.074;8.822;2022-10-31T08:10:21;46.78;;;38.05;;
6757;SDS011;3416;53.074;8.822;2022-10-31T08:12:54;87.55;;;47.00;;
6757;SDS011;3416;53.074;8.822;2022-10-31T08:15:22;134.07;;;51.38;;
6757;SDS011;3416;53.074;8.822;2022-10-31T08:17:50;60.63;;;40.00;;
6757;SDS011;3416;53.074;8.822;2022-10-31T08:20:18;57.83;;;40.17;;
6757;SDS011;3416;53.074;8.822;2022-10-31T08:22:55;49.53;;;36.15;;
6757;SDS011;3416;53.074;8.822;2022-10-31T08:25:22;82.65;;;41.42;;
6757;SDS011;3416;53.074;8.822;2022-10-31T08:27:51;96.18;;;42.25;;
6757;SDS011;3416;53.074;8.822;2022-10-31T08:30:19;52.55;;;40.47;;
6757;SDS011;3416;53.074;8.822;2022-10-31T08:32:46;62.13;;;37.47;;
6757;SDS011;3416;53.074;8.822;2022-10-31T08:35:14;70.18;;;41.17;;
6757;SDS011;3416;53.074;8.822;2022-10-31T08:37:43;49.10;;;39.38;;
6757;SDS011;3416;53.074;8.822;2022-10-31T08:40:11;39.20;;;32.70;;
6757;SDS011;3416;53.074;8.822;2022-10-31T08:42:38;41.20;;;33.72;;
6757;SDS011;3416;53.074;8.822;2022-10-31T08:45:05;28.65;;;25.60;;
6757;SDS011;3416;53.074;8.822;2022-10-31T08:47:32;33.60;;;29.42;;
6757;SDS011;3416;53.074;8.822;2022-10-31T08:49:59;38.00;;;31.60;;
6757;SDS011;3416;53.074;8.822;2022-10-31T08:52:26;41.38;;;33.63;;
6757;SDS011;3416;53.074;8.822;2022-10-31T08:54:55;41.58;;;30.88;;
6757;SDS011;3416;53.074;8.822;2022-10-31T08:57:22;34.35;;;30.63;;
6757;SDS011;3416;53.074;8.822;2022-10-31T08:59:50;30.92;;;27.70;;
6757;SDS011;3416;53.074;8.822;2022-10-31T09:02:18;36.85;;;29.77;;
6757;SDS011;3416;53.074;8.822;2022-10-31T09:04:44;47.33;;;31.90;;
6757;SDS011;3416;53.074;8.822;2022-10-31T09:07:11;34.67;;;29.27;;
6757;SDS011;3416;53.074;8.822;2022-10-31T09:09:38;36.17;;;30.05;;
6757;SDS011;3416;53.074;8.822;2022-10-31T09:12:07;39.97;;;29.63;;
6757;SDS011;3416;53.074;8.822;2022-10-31T09:14:36;36.22;;;29.52;;
6757;SDS011;3416;53.074;8.822;2022-10-31T09:17:02;35.20;;;27.20;;
6757;SDS011;3416;53.074;8.822;2022-10-31T09:19:29;31.25;;;26.42;;
6757;SDS011;3416;53.074;8.822;2022-10-31T09:21:56;33.13;;;29.52;;
6757;SDS011;3416;53.074;8.822;2022-10-31T09:24:23;32.78;;;26.77;;
6757;SDS011;3416;53.074;8.822;2022-10-31T09:26:50;34.15;;;27.77;;
6757;SDS011;3416;53.074;8.822;2022-10-31T09:29:18;33.03;;;26.20;;
6757;SDS011;3416;53.074;8.822;2022-10-31T09:31:45;27.73;;;24.75;;
6757;SDS011;3416;53.074;8.822;2022-10-31T09:34:12;37.53;;;25.27;;
6757;SDS011;3416;53.074;8.822;2022-10-31T09:36:39;24.83;;;22.17;;
6757;SDS011;3416;53.074;8.822;2022-10-31T09:39:08;30.53;;;26.20;;
6757;SDS011;3416;53.074;8.822;2022-10-31T09:41:39;34.78;;;27.58;;
6757;SDS011;3416;53.074;8.822;2022-10-31T09:44:26;34.15;;;27.98;;
6757;SDS011;3416;53.074;8.822;2022-10-31T09:47:00;33.75;;;28.05;;
6757;SDS011;3416;53.074;8.822;2022-10-31T09:49:37;29.80;;;26.60;;
6757;SDS011;3416;53.074;8.822;2022-10-31T09:52:20;28.60;;;23.10;;
6757;SDS011;3416;53.074;8.822;2022-10-31T09:54:52;25.30;;;21.27;;
6757;SDS011;3416;53.074;8.822;2022-10-31T09:57:22;24.10;;;21.57;;
6757;SDS011;3416;53.074;8.822;2022-10-31T09:59:55;24.43;;;21.73;;
6757;SDS011;3416;53.074;8.822;2022-10-31T10:02:23;24.40;;;21.87;;
6757;SDS011;3416;53.074;8.822;2022-10-31T10:04:55;24.67;;;21.03;;
6757;SDS011;3416;53.074;8.822;2022-10-31T10:07:29;21.90;;;19.73;;
6757;SDS011;3416;53.074;8.822;2022-10-31T10:10:12;24.50;;;17.90;;
6757;SDS011;3416;53.074;8.822;2022-10-31T10:12:45;21.77;;;18.80;;
6757;SDS011;3416;53.074;8.822;2022-10-31T10:15:37;21.87;;;19.63;;
6757;SDS011;3416;53.074;8.822;2022-10-31T10:18:18;24.07;;;21.43;;
6757;SDS011;3416;53.074;8.822;2022-10-31T10:20:58;22.47;;;20.10;;
6757;SDS011;3416;53.074;8.822;2022-10-31T10:23:43;23.30;;;19.87;;
6757;SDS011;3416;53.074;8.822;2022-10-31T10:26:21;27.90;;;22.90;;
6757;SDS011;3416;53.074;8.822;2022-10-31T10:28:54;31.90;;;26.80;;
6757;SDS011;3416;53.074;8.822;2022-10-31T10:31:26;30.17;;;24.73;;
6757;SDS011;3416;53.074;8.822;2022-10-31T10:34:01;29.00;;;25.40;;
6757;SDS011;3416;53.074;8.822;2022-10-31T10:36:36;29.77;;;25.47;;
6757;SDS011;3416;53.074;8.822;2022-10-31T10:39:08;33.10;;;25.70;;
6757;SDS011;3416;53.074;8.822;2022-10-31T10:41:42;29.63;;;25.97;;
6757;SDS011;3416;53.074;8.822;2022-10-31T10:44:27;40.07;;;25.97;;
6757;SDS011;3416;53.074;8.822;2022-10-31T10:47:12;31.67;;;25.60;;
6757;SDS011;3416;53.074;8.822;2022-10-31T10:49:57;44.47;;;27.03;;
6757;SDS011;3416;53.074;8.822;2022-10-31T10:52:27;34.67;;;26.50;;
6757;SDS011;3416;53.074;8.822;2022-10-31T10:55:01;31.37;;;26.50;;
6757;SDS011;3416;53.074;8.822;2022-10-31T11:00:21;28.07;;;23.97;;
6757;SDS011;3416;53.074;8.822;2022-10-31T11:02:53;28.70;;;23.80;;
6757;SDS011;3416;53.074;8.822;2022-10-31T11:05:25;30.93;;;22.87;;
6757;SDS011;3416;53.074;8.822;2022-10-31T11:07:56;28.33;;;23.40;;
6757;SDS011;3416;53.074;8.822;2022-10-31T11:10:23;31.33;;;24.43;;
6757;SDS011;3416;53.074;8.822;2022-10-31T11:12:58;29.77;;;22.17;;
6757;SDS011;3416;53.074;8.822;2022-10-31T11:15:28;33.80;;;23.77;;
6757;SDS011;3416;53.074;8.822;2022-10-31T11:17:59;30.40;;;23.47;;
6757;SDS011;3416;53.074;8.822;2022-10-31T11:20:29;30.10;;;20.27;;
6757;SDS011;3416;53.074;8.822;2022-10-31T11:23:03;31.60;;;24.90;;
6757;SDS011;3416;53.074;8.822;2022-10-31T11:25:47;33.37;;;25.17;;
6757;SDS011;3416;53.074;8.822;2022-10-31T11:28:16;32.33;;;25.53;;
6757;SDS011;3416;53.074;8.822;2022-10-31T11:30:44;28.70;;;23.20;;
6757;SDS011;3416;53.074;8.822;2022-10-31T11:33:20;31.97;;;24.77;;
6757;SDS011;3416;53.074;8.822;2022-10-31T11:35:51;32.53;;;25.70;;
6757;SDS011;3416;53.074;8.822;2022-10-31T11:38:20;34.80;;;26.90;;
6757;SDS011;3416;53.074;8.822;2022-10-31T11:40:53;29.60;;;24.83;;
6757;SDS011;3416;53.074;8.822;2022-10-31T11:43:22;36.77;;;24.00;;
6757;SDS011;3416;53.074;8.822;2022-10-31T11:45:51;32.10;;;25.57;;
6757;SDS011;3416;53.074;8.822;2022-10-31T11:48:20;31.20;;;26.20;;
6757;SDS011;3416;53.074;8.822;2022-10-31T11:50:50;36.87;;;26.43;;
6757;SDS011;3416;53.074;8.822;2022-10-31T11:53:21;35.53;;;26.43;;
6757;SDS011;3416;53.074;8.822;2022-10-31T11:56:00;41.57;;;26.17;;
6757;SDS011;3416;53.074;8.822;2022-10-31T11:58:30;43.53;;;27.90;;
6757;SDS011;3416;53.074;8.822;2022-10-31T12:00:57;40.03;;;28.97;;
6757;SDS011;3416;53.074;8.822;2022-10-31T12:03:33;39.87;;;27.90;;
6757;SDS011;3416;53.074;8.822;2022-10-31T12:06:09;39.87;;;30.73;;
6757;SDS011;3416;53.074;8.822;2022-10-31T12:08:41;43.77;;;33.83;;
6757;SDS011;3416;53.074;8.822;2022-10-31T12:11:11;41.57;;;32.00;;
6757;SDS011;3416;53.074;8.822;2022-10-31T12:13:52;49.40;;;32.40;;
6757;SDS011;3416;53.074;8.822;2022-10-31T12:16:27;42.40;;;31.10;;
6757;SDS011;3416;53.074;8.822;2022-10-31T12:19:00;37.53;;;31.83;;
6757;SDS011;3416;53.074;8.822;2022-10-31T12:21:37;39.17;;;31.20;;
6757;SDS011;3416;53.074;8.822;2022-10-31T12:24:23;51.77;;;35.40;;
6757;SDS011;3416;53.074;8.822;2022-10-31T12:27:01;48.17;;;33.67;;
6757;SDS011;3416;53.074;8.822;2022-10-31T12:29:47;43.03;;;32.40;;
6757;SDS011;3416;53.074;8.822;2022-10-31T12:32:28;43.43;;;31.60;;
6757;SDS011;3416;53.074;8.822;2022-10-31T12:38:25;35.57;;;29.33;;
6757;SDS011;3416;53.074;8.822;2022-10-31T12:44:16;32.97;;;27.20;;
6757;SDS011;3416;53.074;8.822;2022-10-31T12:47:04;31.87;;;27.00;;
6757;SDS011;3416;53.074;8.822;2022-10-31T12:49:44;33.10;;;25.40;;
6757;SDS011;3416;53.074;8.822;2022-10-31T12:52:27;35.90;;;26.77;;
6757;SDS011;3416;53.074;8.822;2022-10-31T12:55:14;35.47;;;26.77;;
6757;SDS011;3416;53.074;8.822;2022-10-31T12:58:07;32.73;;;25.83;;
6757;SDS011;3416;53.074;8.822;2022-10-31T13:00:55;38.37;;;26.87;;
6757;SDS011;3416;53.074;8.822;2022-10-31T13:03:48;40.83;;;28.70;;
6757;SDS011;3416;53.074;8.822;2022-10-31T13:06:21;41.67;;;30.20;;
6757;SDS011;3416;53.074;8.822;2022-10-31T13:08:53;36.93;;;28.77;;
6757;SDS011;3416;53.074;8.822;2022-10-31T13:11:26;36.13;;;28.10;;
6757;SDS011;3416;53.074;8.822;2022-10-31T13:14:10;40.03;;;31.10;;
6757;SDS011;3416;53.074;8.822;2022-10-31T13:16:42;46.67;;;30.83;;
6757;SDS011;3416;53.074;8.822;2022-10-31T13:22:05;51.73;;;31.20;;
6757;SDS011;3416;53.074;8.822;2022-10-31T13:24:38;40.93;;;29.90;;
6757;SDS011;3416;53.074;8.822;2022-10-31T13:27:11;40.93;;;30.90;;
6757;SDS011;3416;53.074;8.822;2022-10-31T13:29:42;46.50;;;30.10;;
6757;SDS011;3416;53.074;8.822;2022-10-31T13:32:28;52.43;;;34.40;;
6757;SDS011;3416;53.074;8.822;2022-10-31T13:35:05;50.27;;;31.80;;
6757;SDS011;3416;53.074;8.822;2022-10-31T13:37:46;49.20;;;31.53;;
6757;SDS011;3416;53.074;8.822;2022-10-31T13:40:21;43.93;;;29.70;;
6757;SDS011;3416;53.074;8.822;2022-10-31T13:42:59;42.90;;;28.00;;
6757;SDS011;3416;53.074;8.822;2022-10-31T13:45:33;39.63;;;29.20;;
6757;SDS011;3416;53.074;8.822;2022-10-31T13:48:00;35.17;;;26.27;;
6757;SDS011;3416;53.074;8.822;2022-10-31T13:50:54;38.10;;;27.30;;
6757;SDS011;3416;53.074;8.822;2022-10-31T13:53:22;37.77;;;26.37;;
6757;SDS011;3416;53.074;8.822;2022-10-31T13:56:03;33.37;;;25.43;;
6757;SDS011;3416;53.074;8.822;2022-10-31T13:58:42;36.27;;;26.87;;
6757;SDS011;3416;53.074;8.822;2022-10-31T14:01:29;35.07;;;25.47;;
6757;SDS011;3416;53.074;8.822;2022-10-31T14:03:59;34.30;;;27.50;;
6757;SDS011;3416;53.074;8.822;2022-10-31T14:06:39;39.30;;;27.73;;
6757;SDS011;3416;53.074;8.822;2022-10-31T14:09:20;34.33;;;25.87;;
6757;SDS011;3416;53.074;8.822;2022-10-31T14:11:50;36.83;;;25.00;;
6757;SDS011;3416;53.074;8.822;2022-10-31T14:14:19;38.77;;;26.20;;
6757;SDS011;3416;53.074;8.822;2022-10-31T14:16:52;30.30;;;24.80;;
6757;SDS011;3416;53.074;8.822;2022-10-31T14:19:22;34.63;;;23.77;;
6757;SDS011;3416;53.074;8.822;2022-10-31T14:21:49;39.43;;;25.67;;
6757;SDS011;3416;53.074;8.822;2022-10-31T14:24:30;33.90;;;26.40;;
6757;SDS011;3416;53.074;8.822;2022-10-31T14:27:00;35.77;;;25.37;;
6757;SDS011;3416;53.074;8.822;2022-10-31T14:29:30;36.80;;;25.73;;
6757;SDS011;3416;53.074;8.822;2022-10-31T14:32:01;39.17;;;26.00;;
6757;SDS011;3416;53.074;8.822;2022-10-31T14:34:36;33.23;;;25.20;;
6757;SDS011;3416;53.074;8.822;2022-10-31T14:37:15;44.17;;;29.10;;
6757;SDS011;3416;53.074;8.822;2022-10-31T14:45:57;34.57;;;23.93;;
6757;SDS011;3416;53.074;8.822;2022-10-31T14:51:32;38.33;;;26.90;;
6757;SDS011;3416;53.074;8.822;2022-10-31T14:54:03;33.63;;;25.50;;
6757;SDS011;3416;53.074;8.822;2022-10-31T14:56:33;36.63;;;26.40;;
6757;SDS011;3416;53.074;8.822;2022-10-31T14:59:04;37.40;;;25.80;;
6757;SDS011;3416;53.074;8.822;2022-10-31T15:04:21;28.40;;;23.80;;
6757;SDS011;3416;53.074;8.822;2022-10-31T15:06:51;38.47;;;27.70;;
6757;SDS011;3416;53.074;8.822;2022-10-31T15:09:21;33.13;;;25.13;;
6757;SDS011;3416;53.074;8.822;2022-10-31T15:11:49;35.10;;;23.80;;
6757;SDS011;3416;53.074;8.822;2022-10-31T15:14:20;35.63;;;25.40;;
6757;SDS011;3416;53.074;8.822;2022-10-31T15:16:52;28.10;;;23.27;;
6757;SDS011;3416;53.074;8.822;2022-10-31T15:19:20;32.90;;;23.70;;
6757;SDS011;3416;53.074;8.822;2022-10-31T15:21:50;36.33;;;24.87;;
6757;SDS011;3416;53.074;8.822;2022-10-31T15:24:18;41.97;;;25.60;;
6757;SDS011;3416;53.074;8.822;2022-10-31T15:26:47;33.87;;;24.37;;
6757;SDS011;3416;53.074;8.822;2022-10-31T15:29:16;29.70;;;24.73;;
6757;SDS011;3416;53.074;8.822;2022-10-31T15:31:50;34.77;;;24.63;;
6757;SDS011;3416;53.074;8.822;2022-10-31T15:34:20;32.00;;;22.25;;